^^
Station Historical Data
Daily Summary for August 10, 2018 Units:  Both    English   Metric
« Previous Day
Next Day »
Daily Weekly Monthly Yearly Custom
  High: Low: Average:
Temperature: TemperatureF °F /  -17.8 °C 66.9 °F /  19.4 °C 72.2 °F /  22.3 °C
Dew Point: DewpointF °F /  -17.8 °C 65.7 °F /  18.7 °C 69.7 °F /  20.9 °C
Humidity: Humidity% 77% 92%
Wind Speed: WindSpeedMPHmph /  0km/h - 0mph /  0km/h
Wind Gust: WindSpeedGustMPHmph /  0km/h - -
Wind- - West
Pressure: PressureIn in /  0 hPa 29.92 in /  1013.1 hPa -
Precipitation: 0.03 in /  0.76 mm    
Historical Graphs
 
 
Tabular Data for August 10, 2018
Time Temperature Dew Point Pressure Wind Wind Speed Wind Gust Humidity Rainfall Rate (Hourly)
TemperatureF °F /  -17.8 °C DewpointF °F /  -17.8 °C PressureInin /  0hPa Calm     Humidity% HourlyPrecipInin /  0mm
00:04 67.6 °F /  19.8 °C 66.4 °F /  19.1 °C 30.06in /  1017.8hPa Calm     96% 0in /  0mm
00:09 67.6 °F /  19.8 °C 66.4 °F /  19.1 °C 30.06in /  1017.8hPa Calm     96% 0in /  0mm
00:14 67.6 °F /  19.8 °C 66.4 °F /  19.1 °C 30.06in /  1017.8hPa Calm     96% 0in /  0mm
00:19 67.6 °F /  19.8 °C 66.4 °F /  19.1 °C 30.06in /  1017.8hPa Calm     96% 0in /  0mm
00:24 67.6 °F /  19.8 °C 66.4 °F /  19.1 °C 30.07in /  1018.2hPa Calm     96% 0in /  0mm
00:29 67.6 °F /  19.8 °C 66.4 °F /  19.1 °C 30.07in /  1018.2hPa Calm     96% 0in /  0mm
00:34 67.5 °F /  19.7 °C 66.2 °F /  19 °C 30.07in /  1018.2hPa Calm     96% 0in /  0mm
00:39 67.5 °F /  19.7 °C 66.2 °F /  19 °C 30.07in /  1018.2hPa Calm     96% 0in /  0mm
00:44 67.5 °F /  19.7 °C 66.2 °F /  19 °C 30.07in /  1018.2hPa Calm     96% 0in /  0mm
00:49 67.5 °F /  19.7 °C 66.2 °F /  19 °C 30.07in /  1018.2hPa Calm     96% 0in /  0mm
00:54 67.5 °F /  19.7 °C 66.2 °F /  19 °C 30.07in /  1018.2hPa Calm     96% 0in /  0mm
00:59 67.6 °F /  19.8 °C 66.4 °F /  19.1 °C 30.07in /  1018.2hPa Calm     96% 0in /  0mm
01:04 67.6 °F /  19.8 °C 66.4 °F /  19.1 °C 30.07in /  1018.2hPa Calm     96% 0in /  0mm
01:09 67.6 °F /  19.8 °C 66.4 °F /  19.1 °C 30.07in /  1018.2hPa Calm     96% 0in /  0mm
01:14 67.6 °F /  19.8 °C 66.4 °F /  19.1 °C 30.07in /  1018.2hPa Calm     96% 0in /  0mm
01:19 67.6 °F /  19.8 °C 66.4 °F /  19.1 °C 30.07in /  1018.2hPa Calm     96% 0in /  0mm
01:24 67.6 °F /  19.8 °C 66.4 °F /  19.1 °C 30.07in /  1018.2hPa Calm     96% 0in /  0mm
01:29 67.6 °F /  19.8 °C 66.4 °F /  19.1 °C 30.07in /  1018.2hPa Calm     96% 0in /  0mm
01:34 67.8 °F /  19.9 °C 66.6 °F /  19.2 °C 30.07in /  1018.2hPa Calm     96% 0in /  0mm
01:39 67.8 °F /  19.9 °C 66.6 °F /  19.2 °C 30.06in /  1017.8hPa Calm     96% 0in /  0mm
01:44 67.6 °F /  19.8 °C 66.4 °F /  19.1 °C 30.06in /  1017.8hPa Calm     96% 0in /  0mm
01:49 67.6 °F /  19.8 °C 66.4 °F /  19.1 °C 30.06in /  1017.8hPa Calm     96% 0in /  0mm
01:54 67.6 °F /  19.8 °C 66.4 °F /  19.1 °C 30.06in /  1017.8hPa Calm     96% 0in /  0mm
01:59 67.6 °F /  19.8 °C 66.4 °F /  19.1 °C 30.06in /  1017.8hPa Calm     96% 0in /  0mm
02:04 67.6 °F /  19.8 °C 66.4 °F /  19.1 °C 30.06in /  1017.8hPa Calm     96% 0in /  0mm
02:09 67.6 °F /  19.8 °C 66.4 °F /  19.1 °C 30.05in /  1017.5hPa Calm     96% 0in /  0mm
02:14 67.6 °F /  19.8 °C 66.4 °F /  19.1 °C 30.06in /  1017.8hPa Calm     96% 0in /  0mm
02:19 67.6 °F /  19.8 °C 66.4 °F /  19.1 °C 30.06in /  1017.8hPa Calm     96% 0in /  0mm
02:24 67.6 °F /  19.8 °C 66.4 °F /  19.1 °C 30.06in /  1017.8hPa Calm     96% 0.01in /  0.25mm
02:29 67.6 °F /  19.8 °C 66.4 °F /  19.1 °C 30.05in /  1017.5hPa Calm     96% 0.01in /  0.25mm
02:34 67.6 °F /  19.8 °C 66.4 °F /  19.1 °C 30.05in /  1017.5hPa Calm     96% 0.01in /  0.25mm
02:39 67.6 °F /  19.8 °C 66.4 °F /  19.1 °C 30.05in /  1017.5hPa Calm     96% 0.01in /  0.25mm
02:44 67.6 °F /  19.8 °C 66.4 °F /  19.1 °C 30.05in /  1017.5hPa Calm     96% 0.01in /  0.25mm
02:49 67.5 °F /  19.7 °C 66.2 °F /  19 °C 30.05in /  1017.5hPa Calm     96% 0.01in /  0.25mm
02:54 67.5 °F /  19.7 °C 66.2 °F /  19 °C 30.05in /  1017.5hPa Calm     96% 0.01in /  0.25mm
02:59 67.3 °F /  19.6 °C 66 °F /  18.9 °C 30.05in /  1017.5hPa Calm     96% 0.01in /  0.25mm
03:04 67.3 °F /  19.6 °C 66 °F /  18.9 °C 30.04in /  1017.2hPa Calm     96% 0.01in /  0.25mm
03:09 67.3 °F /  19.6 °C 66 °F /  18.9 °C 30.04in /  1017.2hPa Calm     96% 0.01in /  0.25mm
03:14 67.3 °F /  19.6 °C 66 °F /  18.9 °C 30.04in /  1017.2hPa Calm     96% 0.01in /  0.25mm
03:19 67.3 °F /  19.6 °C 66 °F /  18.9 °C 30.04in /  1017.2hPa Calm     96% 0.01in /  0.25mm
03:24 67.3 °F /  19.6 °C 66 °F /  18.9 °C 30.04in /  1017.2hPa Calm     96% 0in /  0mm
03:29 67.3 °F /  19.6 °C 66 °F /  18.9 °C 30.04in /  1017.2hPa Calm     96% 0in /  0mm
03:34 67.3 °F /  19.6 °C 66 °F /  18.9 °C 30.04in /  1017.2hPa Calm     96% 0in /  0mm
03:39 67.3 °F /  19.6 °C 66 °F /  18.9 °C 30.04in /  1017.2hPa Calm     96% 0in /  0mm
03:44 67.3 °F /  19.6 °C 66 °F /  18.9 °C 30.04in /  1017.2hPa Calm     96% 0in /  0mm
03:49 67.5 °F /  19.7 °C 66.2 °F /  19 °C 30.03in /  1016.8hPa Calm     96% 0in /  0mm
03:54 67.5 °F /  19.7 °C 66.2 °F /  19 °C 30.04in /  1017.2hPa Calm     96% 0in /  0mm
03:59 67.3 °F /  19.6 °C 66 °F /  18.9 °C 30.03in /  1016.8hPa Calm     96% 0in /  0mm
04:04 67.3 °F /  19.6 °C 66 °F /  18.9 °C 30.03in /  1016.8hPa Calm     96% 0in /  0mm
04:09 67.3 °F /  19.6 °C 66 °F /  18.9 °C 30.03in /  1016.8hPa Calm     96% 0in /  0mm
04:14 67.3 °F /  19.6 °C 66 °F /  18.9 °C 30.03in /  1016.8hPa Calm     96% 0in /  0mm
04:19 67.3 °F /  19.6 °C 66 °F /  18.9 °C 30.03in /  1016.8hPa Calm     96% 0in /  0mm
04:24 67.5 °F /  19.7 °C 66.2 °F /  19 °C 30.03in /  1016.8hPa Calm     96% 0in /  0mm
04:29 67.5 °F /  19.7 °C 66.2 °F /  19 °C 30.03in /  1016.8hPa Calm     96% 0in /  0mm
04:34 67.3 °F /  19.6 °C 66 °F /  18.9 °C 30.03in /  1016.8hPa Calm     96% 0in /  0mm
04:39 67.3 °F /  19.6 °C 66 °F /  18.9 °C 30.03in /  1016.8hPa Calm     96% 0in /  0mm
04:44 67.3 °F /  19.6 °C 66 °F /  18.9 °C 30.03in /  1016.8hPa Calm     96% 0in /  0mm
04:49 67.3 °F /  19.6 °C 66 °F /  18.9 °C 30.03in /  1016.8hPa Calm     96% 0in /  0mm
04:54 67.3 °F /  19.6 °C 66 °F /  18.9 °C 30.03in /  1016.8hPa Calm     96% 0in /  0mm
04:59 67.3 °F /  19.6 °C 66 °F /  18.9 °C 30.03in /  1016.8hPa Calm     96% 0in /  0mm
05:04 67.1 °F /  19.5 °C 65.8 °F /  18.8 °C 30.03in /  1016.8hPa Calm     96% 0in /  0mm
05:09 67.1 °F /  19.5 °C 65.8 °F /  18.8 °C 30.03in /  1016.8hPa Calm     96% 0in /  0mm
05:14 66.9 °F /  19.4 °C 65.7 °F /  18.7 °C 30.03in /  1016.8hPa Calm     96% 0in /  0mm
05:19 66.9 °F /  19.4 °C 65.7 °F /  18.7 °C 30.03in /  1016.8hPa Calm     96% 0in /  0mm
05:24 67.1 °F /  19.5 °C 65.8 °F /  18.8 °C 30.03in /  1016.8hPa Calm     96% 0in /  0mm
05:29 67.1 °F /  19.5 °C 65.8 °F /  18.8 °C 30.03in /  1016.8hPa Calm     96% 0in /  0mm
05:34 67.1 °F /  19.5 °C 65.8 °F /  18.8 °C 30.03in /  1016.8hPa Calm     96% 0in /  0mm
05:39 67.1 °F /  19.5 °C 65.8 °F /  18.8 °C 30.03in /  1016.8hPa Calm     96% 0in /  0mm
05:44 67.1 °F /  19.5 °C 65.8 °F /  18.8 °C 30.03in /  1016.8hPa Calm     96% 0in /  0mm
05:49 67.1 °F /  19.5 °C 65.8 °F /  18.8 °C 30.03in /  1016.8hPa Calm     96% 0in /  0mm
05:54 67.1 °F /  19.5 °C 65.8 °F /  18.8 °C 30.03in /  1016.8hPa Calm     96% 0in /  0mm
05:59 67.1 °F /  19.5 °C 65.8 °F /  18.8 °C 30.03in /  1016.8hPa Calm     96% 0in /  0mm
06:04 67.1 °F /  19.5 °C 65.8 °F /  18.8 °C 30.03in /  1016.8hPa Calm     96% 0in /  0mm
06:09 67.3 °F /  19.6 °C 66 °F /  18.9 °C 30.04in /  1017.2hPa Calm     96% 0in /  0mm
06:14 67.3 °F /  19.6 °C 66 °F /  18.9 °C 30.04in /  1017.2hPa Calm     96% 0in /  0mm
06:19 67.3 °F /  19.6 °C 66 °F /  18.9 °C 30.04in /  1017.2hPa Calm     96% 0in /  0mm
06:24 67.3 °F /  19.6 °C 66 °F /  18.9 °C 30.04in /  1017.2hPa Calm     96% 0in /  0mm
06:29 67.3 °F /  19.6 °C 66 °F /  18.9 °C 30.04in /  1017.2hPa Calm     96% 0in /  0mm
06:34 67.3 °F /  19.6 °C 66 °F /  18.9 °C 30.04in /  1017.2hPa Calm     96% 0in /  0mm
06:39 67.3 °F /  19.6 °C 66 °F /  18.9 °C 30.04in /  1017.2hPa Calm     96% 0in /  0mm
06:44 67.3 °F /  19.6 °C 66 °F /  18.9 °C 30.04in /  1017.2hPa Calm     96% 0in /  0mm
06:49 67.3 °F /  19.6 °C 66 °F /  18.9 °C 30.04in /  1017.2hPa Calm     96% 0in /  0mm
06:54 67.3 °F /  19.6 °C 66 °F /  18.9 °C 30.04in /  1017.2hPa Calm     96% 0in /  0mm
06:59 67.3 °F /  19.6 °C 66 °F /  18.9 °C 30.04in /  1017.2hPa Calm     96% 0in /  0mm
07:04 67.5 °F /  19.7 °C 66.2 °F /  19 °C 30.04in /  1017.2hPa Calm     96% 0in /  0mm
07:09 67.5 °F /  19.7 °C 66.2 °F /  19 °C 30.04in /  1017.2hPa Calm     96% 0in /  0mm
07:14 67.5 °F /  19.7 °C 66.2 °F /  19 °C 30.04in /  1017.2hPa Calm     96% 0in /  0mm
07:19 67.5 °F /  19.7 °C 66.2 °F /  19 °C 30.05in /  1017.5hPa Calm     96% 0in /  0mm
07:24 67.5 °F /  19.7 °C 66.2 °F /  19 °C 30.05in /  1017.5hPa Calm     96% 0in /  0mm
07:29 67.5 °F /  19.7 °C 66.2 °F /  19 °C 30.05in /  1017.5hPa Calm     96% 0in /  0mm
07:34 67.5 °F /  19.7 °C 66.2 °F /  19 °C 30.05in /  1017.5hPa Calm     96% 0in /  0mm
07:39 67.5 °F /  19.7 °C 66.2 °F /  19 °C 30.06in /  1017.8hPa Calm     96% 0in /  0mm
07:44 67.5 °F /  19.7 °C 66.2 °F /  19 °C 30.05in /  1017.5hPa Calm     96% 0in /  0mm
07:49 67.5 °F /  19.7 °C 66.2 °F /  19 °C 30.05in /  1017.5hPa Calm     96% 0in /  0mm
07:54 67.6 °F /  19.8 °C 66.4 °F /  19.1 °C 30.05in /  1017.5hPa Calm     96% 0in /  0mm
07:59 67.6 °F /  19.8 °C 66.4 °F /  19.1 °C 30.05in /  1017.5hPa Calm     96% 0in /  0mm
08:04 67.6 °F /  19.8 °C 66.4 °F /  19.1 °C 30.05in /  1017.5hPa Calm     96% 0in /  0mm
08:09 67.6 °F /  19.8 °C 66.7 °F /  19.3 °C 30.05in /  1017.5hPa Calm     97% 0in /  0mm
08:14 67.6 °F /  19.8 °C 66.7 °F /  19.3 °C 30.05in /  1017.5hPa Calm     97% 0in /  0mm
08:19 67.6 °F /  19.8 °C 66.7 °F /  19.3 °C 30.06in /  1017.8hPa Calm     97% 0in /  0mm
08:24 67.8 °F /  19.9 °C 66.9 °F /  19.4 °C 30.06in /  1017.8hPa Calm     97% 0in /  0mm
08:29 67.8 °F /  19.9 °C 66.9 °F /  19.4 °C 30.06in /  1017.8hPa Calm     97% 0in /  0mm
08:34 67.8 °F /  19.9 °C 66.9 °F /  19.4 °C 30.06in /  1017.8hPa Calm     97% 0in /  0mm
08:39 68 °F /  20 °C 66.7 °F /  19.3 °C 30.06in /  1017.8hPa Calm     96% 0in /  0mm
08:44 68.2 °F /  20.1 °C 66.9 °F /  19.4 °C 30.06in /  1017.8hPa Calm     96% 0in /  0mm
08:49 68.2 °F /  20.1 °C 66.9 °F /  19.4 °C 30.06in /  1017.8hPa Calm     96% 0in /  0mm
08:54 68.4 °F /  20.2 °C 67.1 °F /  19.5 °C 30.06in /  1017.8hPa Calm     96% 0in /  0mm
08:59 68.4 °F /  20.2 °C 67.5 °F /  19.7 °C 30.06in /  1017.8hPa Calm     97% 0in /  0mm
09:04 68.4 °F /  20.2 °C 67.5 °F /  19.7 °C 30.06in /  1017.8hPa Calm     97% 0in /  0mm
09:09 68.4 °F /  20.2 °C 67.5 °F /  19.7 °C 30.06in /  1017.8hPa Calm     97% 0in /  0mm
09:14 68.5 °F /  20.3 °C 67.6 °F /  19.8 °C 30.06in /  1017.8hPa Calm     97% 0in /  0mm
09:19 68.5 °F /  20.3 °C 67.6 °F /  19.8 °C 30.06in /  1017.8hPa Calm     97% 0in /  0mm
09:24 68.7 °F /  20.4 °C 67.8 °F /  19.9 °C 30.06in /  1017.8hPa Calm     97% 0.01in /  0.25mm
09:29 68.7 °F /  20.4 °C 67.8 °F /  19.9 °C 30.06in /  1017.8hPa Calm     97% 0.01in /  0.25mm
09:34 69.1 °F /  20.6 °C 68.2 °F /  20.1 °C 30.06in /  1017.8hPa Calm     97% 0.01in /  0.25mm
09:39 69.1 °F /  20.6 °C 68.2 °F /  20.1 °C 30.07in /  1018.2hPa Calm     97% 0.01in /  0.25mm
09:44 69.3 °F /  20.7 °C 68.4 °F /  20.2 °C 30.06in /  1017.8hPa Calm     97% 0.01in /  0.25mm
09:49 69.4 °F /  20.8 °C 68.5 °F /  20.3 °C 30.06in /  1017.8hPa Calm     97% 0.01in /  0.25mm
09:54 69.8 °F /  21 °C 68.9 °F /  20.5 °C 30.06in /  1017.8hPa Calm     97% 0.01in /  0.25mm
09:59 70 °F /  21.1 °C 69.1 °F /  20.6 °C 30.06in /  1017.8hPa Calm     97% 0.01in /  0.25mm
10:04 70.2 °F /  21.2 °C 69.3 °F /  20.7 °C 30.06in /  1017.8hPa Calm     97% 0.01in /  0.25mm
10:09 70.3 °F /  21.3 °C 69.4 °F /  20.8 °C 30.06in /  1017.8hPa Calm     97% 0.01in /  0.25mm
10:14 70.3 °F /  21.3 °C 69.4 °F /  20.8 °C 30.06in /  1017.8hPa Calm   1mph /  1.6km/h 97% 0.01in /  0.25mm
10:19 70.5 °F /  21.4 °C 69.6 °F /  20.9 °C 30.06in /  1017.8hPa Calm   1mph /  1.6km/h 97% 0.01in /  0.25mm
10:24 70.9 °F /  21.6 °C 70 °F /  21.1 °C 30.06in /  1017.8hPa Calm   1mph /  1.6km/h 97% 0in /  0mm
10:29 71.2 °F /  21.8 °C 70.3 °F /  21.3 °C 30.06in /  1017.8hPa Calm     97% 0in /  0mm
10:34 71.2 °F /  21.8 °C 70.3 °F /  21.3 °C 30.06in /  1017.8hPa Calm     97% 0in /  0mm
10:39 71.4 °F /  21.9 °C 70.5 °F /  21.4 °C 30.06in /  1017.8hPa Calm   1mph /  1.6km/h 97% 0in /  0mm
10:44 71.2 °F /  21.8 °C 70.3 °F /  21.3 °C 30.07in /  1018.2hPa Calm     97% 0in /  0mm
10:49 71.4 °F /  21.9 °C 70.5 °F /  21.4 °C 30.07in /  1018.2hPa Calm     97% 0in /  0mm
10:54 71.4 °F /  21.9 °C 70.2 °F /  21.2 °C 30.07in /  1018.2hPa Calm     96% 0in /  0mm
10:59 71.4 °F /  21.9 °C 70.2 °F /  21.2 °C 30.07in /  1018.2hPa Calm     96% 0in /  0mm
11:04 71.8 °F /  22.1 °C 70.9 °F /  21.6 °C 30.07in /  1018.2hPa Calm     97% 0in /  0mm
11:09 71.8 °F /  22.1 °C 70.9 °F /  21.6 °C 30.06in /  1017.8hPa Calm     97% 0in /  0mm
11:14 72 °F /  22.2 °C 70.7 °F /  21.5 °C 30.06in /  1017.8hPa Calm     96% 0in /  0mm
11:19 72.1 °F /  22.3 °C 70.9 °F /  21.6 °C 30.06in /  1017.8hPa Calm     96% 0in /  0mm
11:24 72.1 °F /  22.3 °C 70.9 °F /  21.6 °C 30.06in /  1017.8hPa Calm     96% 0in /  0mm
11:29 72.1 °F /  22.3 °C 70.9 °F /  21.6 °C 30.06in /  1017.8hPa Calm     96% 0in /  0mm
11:34 72.5 °F /  22.5 °C 71.6 °F /  22 °C 30.06in /  1017.8hPa Calm     97% 0in /  0mm
11:39 73 °F /  22.8 °C 71.8 °F /  22.1 °C 30.06in /  1017.8hPa Calm     96% 0in /  0mm
11:44 72.9 °F /  22.7 °C 71.6 °F /  22 °C 30.06in /  1017.8hPa Calm   1mph /  1.6km/h 96% 0in /  0mm
11:49 72.9 °F /  22.7 °C 71.6 °F /  22 °C 30.05in /  1017.5hPa Calm     96% 0in /  0mm
11:54 72.9 °F /  22.7 °C 71.6 °F /  22 °C 30.05in /  1017.5hPa Calm     96% 0in /  0mm
11:59 73 °F /  22.8 °C 71.8 °F /  22.1 °C 30.05in /  1017.5hPa Calm     96% 0in /  0mm
12:04 73.2 °F /  22.9 °C 72 °F /  22.2 °C 30.04in /  1017.2hPa Calm     96% 0in /  0mm
12:09 73.2 °F /  22.9 °C 72 °F /  22.2 °C 30.04in /  1017.2hPa NW 0.9mph /  1.4km/h 3mph /  4.8km/h 96% 0in /  0mm
12:14 73 °F /  22.8 °C 71.8 °F /  22.1 °C 30.04in /  1017.2hPa Calm     96% 0in /  0mm
12:19 73.6 °F /  23.1 °C 72.3 °F /  22.4 °C 30.04in /  1017.2hPa Calm   1mph /  1.6km/h 96% 0in /  0mm
12:24 73.8 °F /  23.2 °C 72.5 °F /  22.5 °C 30.04in /  1017.2hPa Calm     96% 0in /  0mm
12:29 73.9 °F /  23.3 °C 72.7 °F /  22.6 °C 30.04in /  1017.2hPa Calm     96% 0in /  0mm
12:34 74.5 °F /  23.6 °C 73.2 °F /  22.9 °C 30.03in /  1016.8hPa Calm     96% 0in /  0mm
12:39 74.8 °F /  23.8 °C 73.2 °F /  22.9 °C 30.03in /  1016.8hPa Calm     95% 0in /  0mm
12:44 74.5 °F /  23.6 °C 73 °F /  22.8 °C 30.02in /  1016.5hPa Calm     95% 0in /  0mm
12:49 74.5 °F /  23.6 °C 73 °F /  22.8 °C 30.02in /  1016.5hPa Calm     95% 0in /  0mm
12:54 74.7 °F /  23.7 °C 73.2 °F /  22.9 °C 30.01in /  1016.1hPa Calm     95% 0in /  0mm
12:59 74.8 °F /  23.8 °C 73 °F /  22.8 °C 30.02in /  1016.5hPa Calm     94% 0in /  0mm
13:04 75 °F /  23.9 °C 73.2 °F /  22.9 °C 30.01in /  1016.1hPa Calm   3mph /  4.8km/h 94% 0in /  0mm
13:09 75 °F /  23.9 °C 72.9 °F /  22.7 °C 30.01in /  1016.1hPa Calm     93% 0in /  0mm
13:14 75.2 °F /  24 °C 73 °F /  22.8 °C 30.01in /  1016.1hPa Calm     93% 0in /  0mm
13:19 75.6 °F /  24.2 °C 73.4 °F /  23 °C 30.01in /  1016.1hPa Calm     93% 0in /  0mm
13:24 75.9 °F /  24.4 °C 73.8 °F /  23.2 °C 30.01in /  1016.1hPa Calm     93% 0in /  0mm
13:29 76.5 °F /  24.7 °C 73.9 °F /  23.3 °C 30.01in /  1016.1hPa Calm   1mph /  1.6km/h 92% 0in /  0mm
13:34 77.2 °F /  25.1 °C 74.7 °F /  23.7 °C 30.00in /  1015.8hPa Calm   1mph /  1.6km/h 92% 0in /  0mm
13:39 77.2 °F /  25.1 °C 74.3 °F /  23.5 °C 30.00in /  1015.8hPa Calm     91% 0in /  0mm
13:44 77.2 °F /  25.1 °C 73.8 °F /  23.2 °C 30.00in /  1015.8hPa Calm   1mph /  1.6km/h 89% 0in /  0mm
13:49 77.2 °F /  25.1 °C 73.4 °F /  23 °C 30.00in /  1015.8hPa Calm   4mph /  6.4km/h 88% 0in /  0mm
13:54 77.4 °F /  25.2 °C 74.1 °F /  23.4 °C 30.00in /  1015.8hPa Calm     90% 0in /  0mm
13:59 77.2 °F /  25.1 °C 74.3 °F /  23.5 °C 30.00in /  1015.8hPa Calm     91% 0in /  0mm
14:04 77.4 °F /  25.2 °C 73.6 °F /  23.1 °C 29.99in /  1015.5hPa Calm   1mph /  1.6km/h 88% 0in /  0mm
14:09 77.9 °F /  25.5 °C 74.7 °F /  23.7 °C 29.99in /  1015.5hPa Calm     90% 0in /  0mm
14:14 78.3 °F /  25.7 °C 74.1 °F /  23.4 °C 29.99in /  1015.5hPa NW 0.9mph /  1.4km/h 4mph /  6.4km/h 87% 0in /  0mm
14:19 78.4 °F /  25.8 °C 73.9 °F /  23.3 °C 29.99in /  1015.5hPa Calm     86% 0in /  0mm
14:24 79 °F /  26.1 °C 74.1 °F /  23.4 °C 29.99in /  1015.5hPa Calm   3mph /  4.8km/h 85% 0in /  0mm
14:29 79.3 °F /  26.3 °C 74.5 °F /  23.6 °C 29.99in /  1015.5hPa NNW 2mph /  3.2km/h 2mph /  3.2km/h 85% 0in /  0mm
14:34 79.5 °F /  26.4 °C 74.7 °F /  23.7 °C 29.99in /  1015.5hPa Calm     85% 0in /  0mm
14:39 79.5 °F /  26.4 °C 73.9 °F /  23.3 °C 29.98in /  1015.1hPa Calm     83% 0in /  0mm
14:44 79.7 °F /  26.5 °C 74.1 °F /  23.4 °C 29.98in /  1015.1hPa NNW 0.9mph /  1.4km/h 4mph /  6.4km/h 83% 0in /  0mm
14:49 80.1 °F /  26.7 °C 74.8 °F /  23.8 °C 29.98in /  1015.1hPa Calm   2mph /  3.2km/h 84% 0in /  0mm
14:54 80.2 °F /  26.8 °C 74.7 °F /  23.7 °C 29.97in /  1014.8hPa ENE 0.9mph /  1.4km/h 1mph /  1.6km/h 83% 0in /  0mm
14:59 80.2 °F /  26.8 °C 73.6 °F /  23.1 °C 29.97in /  1014.8hPa Calm   1mph /  1.6km/h 80% 0in /  0mm
15:04 80.4 °F /  26.9 °C 73.8 °F /  23.2 °C 29.97in /  1014.8hPa NNW 0.9mph /  1.4km/h 1mph /  1.6km/h 80% 0in /  0mm
15:09 80.6 °F /  27 °C 74.3 °F /  23.5 °C 29.97in /  1014.8hPa Calm     81% 0in /  0mm
15:14 80.4 °F /  26.9 °C 73.8 °F /  23.2 °C 29.96in /  1014.4hPa Calm   1mph /  1.6km/h 80% 0in /  0mm
15:19 80.4 °F /  26.9 °C 74.1 °F /  23.4 °C 29.96in /  1014.4hPa Calm   3mph /  4.8km/h 81% 0in /  0mm
15:24 80.2 °F /  26.8 °C 74.3 °F /  23.5 °C 29.96in /  1014.4hPa Calm     82% 0in /  0mm
15:29 80.1 °F /  26.7 °C 74.5 °F /  23.6 °C 29.96in /  1014.4hPa Calm     83% 0in /  0mm
15:34 80.1 °F /  26.7 °C 73.8 °F /  23.2 °C 29.96in /  1014.4hPa Calm   1mph /  1.6km/h 81% 0in /  0mm
15:39 80.4 °F /  26.9 °C 74.8 °F /  23.8 °C 29.96in /  1014.4hPa Calm     83% 0in /  0mm
15:44 80.2 °F /  26.8 °C 73.9 °F /  23.3 °C 29.96in /  1014.4hPa Calm   3mph /  4.8km/h 81% 0in /  0mm
15:49 80.2 °F /  26.8 °C 74.7 °F /  23.7 °C 29.95in /  1014.1hPa Calm     83% 0in /  0mm
15:54 79.9 °F /  26.6 °C 74.3 °F /  23.5 °C 29.95in /  1014.1hPa Calm     83% 0in /  0mm
15:59 79.9 °F /  26.6 °C 73.9 °F /  23.3 °C 29.95in /  1014.1hPa Calm   1mph /  1.6km/h 82% 0in /  0mm
16:04 80.2 °F /  26.8 °C 74.3 °F /  23.5 °C 29.95in /  1014.1hPa Calm     82% 0in /  0mm
16:09 80.2 °F /  26.8 °C 74.7 °F /  23.7 °C 29.95in /  1014.1hPa Calm     83% 0in /  0mm
16:14 80.2 °F /  26.8 °C 74.7 °F /  23.7 °C 29.94in /  1013.8hPa Calm     83% 0in /  0mm
16:19 80.1 °F /  26.7 °C 74.1 °F /  23.4 °C 29.94in /  1013.8hPa Calm     82% 0in /  0mm
16:24 80.2 °F /  26.8 °C 73.6 °F /  23.1 °C 29.94in /  1013.8hPa Calm   5mph /  8km/h 80% 0in /  0mm
16:29 80.6 °F /  27 °C 74.7 °F /  23.7 °C 29.94in /  1013.8hPa Calm   4mph /  6.4km/h 82% 0in /  0mm
16:34 80.8 °F /  27.1 °C 73.9 °F /  23.3 °C 29.94in /  1013.8hPa NW 0.9mph /  1.4km/h 1mph /  1.6km/h 80% 0in /  0mm
16:39 80.8 °F /  27.1 °C 73.9 °F /  23.3 °C 29.93in /  1013.4hPa NNE 0.9mph /  1.4km/h 1mph /  1.6km/h 80% 0in /  0mm
16:44 80.6 °F /  27 °C 73.9 °F /  23.3 °C 29.93in /  1013.4hPa Calm     80% 0in /  0mm
16:49 80.4 °F /  26.9 °C 73.8 °F /  23.2 °C 29.93in /  1013.4hPa Calm     80% 0in /  0mm
16:54 80.8 °F /  27.1 °C 75.2 °F /  24 °C 29.93in /  1013.4hPa Calm     83% 0in /  0mm
16:59 80.8 °F /  27.1 °C 74.8 °F /  23.8 °C 29.93in /  1013.4hPa Calm   6mph /  9.7km/h 82% 0in /  0mm
17:04 81.1 °F /  27.3 °C 75.6 °F /  24.2 °C 29.93in /  1013.4hPa Calm     83% 0in /  0mm
17:09 81.1 °F /  27.3 °C 75.2 °F /  24 °C 29.93in /  1013.4hPa Calm   1mph /  1.6km/h 82% 0in /  0mm
17:14 81 °F /  27.2 °C 75 °F /  23.9 °C 29.93in /  1013.4hPa Calm     82% 0in /  0mm
17:19 80.6 °F /  27 °C 74.7 °F /  23.7 °C 29.93in /  1013.4hPa Calm     82% 0in /  0mm
17:24 80.2 °F /  26.8 °C 74.7 °F /  23.7 °C 29.93in /  1013.4hPa Calm     83% 0in /  0mm
17:29 80.1 °F /  26.7 °C 74.1 °F /  23.4 °C 29.93in /  1013.4hPa Calm   1mph /  1.6km/h 82% 0in /  0mm
17:34 80.4 °F /  26.9 °C 73.2 °F /  22.9 °C 29.93in /  1013.4hPa Calm   4mph /  6.4km/h 79% 0in /  0mm
17:39 80.8 °F /  27.1 °C 73.6 °F /  23.1 °C 29.92in /  1013.1hPa Calm   5mph /  8km/h 79% 0in /  0mm
17:44 81.1 °F /  27.3 °C 73.2 °F /  22.9 °C 29.92in /  1013.1hPa Calm     77% 0in /  0mm
17:49 81.3 °F /  27.4 °C 75.7 °F /  24.3 °C 29.92in /  1013.1hPa Calm     83% 0in /  0mm
17:54 81 °F /  27.2 °C 75 °F /  23.9 °C 29.92in /  1013.1hPa Calm     82% 0in /  0mm
17:59 80.4 °F /  26.9 °C 73.2 °F /  22.9 °C 29.92in /  1013.1hPa Calm     79% 0in /  0mm
18:04 80.4 °F /  26.9 °C 74.1 °F /  23.4 °C 29.92in /  1013.1hPa Calm     81% 0in /  0mm
18:09 80.4 °F /  26.9 °C 73.8 °F /  23.2 °C 29.92in /  1013.1hPa Calm     80% 0in /  0mm
18:14 80.2 °F /  26.8 °C 74.7 °F /  23.7 °C 29.92in /  1013.1hPa Calm     83% 0in /  0mm
18:19 80.1 °F /  26.7 °C 74.5 °F /  23.6 °C 29.92in /  1013.1hPa Calm     83% 0in /  0mm
18:24 80.1 °F /  26.7 °C 74.8 °F /  23.8 °C 29.92in /  1013.1hPa Calm     84% 0in /  0mm
18:29 79.7 °F /  26.5 °C 74.5 °F /  23.6 °C 29.92in /  1013.1hPa Calm     84% 0in /  0mm
18:34 79.3 °F /  26.3 °C 74.8 °F /  23.8 °C 29.93in /  1013.4hPa Calm     86% 0in /  0mm
18:39 79.3 °F /  26.3 °C 75.2 °F /  24 °C 29.93in /  1013.4hPa Calm     87% 0in /  0mm
18:44 79.2 °F /  26.2 °C 75 °F /  23.9 °C 29.93in /  1013.4hPa Calm     87% 0in /  0mm
18:49 79 °F /  26.1 °C 74.5 °F /  23.6 °C 29.93in /  1013.4hPa Calm   1mph /  1.6km/h 86% 0in /  0mm
18:54 79 °F /  26.1 °C 74.8 °F /  23.8 °C 29.93in /  1013.4hPa Calm     87% 0in /  0mm
18:59 78.6 °F /  25.9 °C 74.8 °F /  23.8 °C 29.93in /  1013.4hPa Calm     88% 0in /  0mm
19:04 78.4 °F /  25.8 °C 74.7 °F /  23.7 °C 29.93in /  1013.4hPa Calm     88% 0in /  0mm
19:09 78.4 °F /  25.8 °C 74.3 °F /  23.5 °C 29.93in /  1013.4hPa Calm     87% 0in /  0mm
19:14 78.3 °F /  25.7 °C 74.7 °F /  23.7 °C 29.93in /  1013.4hPa Calm     89% 0in /  0mm
19:19 78.1 °F /  25.6 °C 74.5 °F /  23.6 °C 29.93in /  1013.4hPa Calm     89% 0in /  0mm
19:24 77.9 °F /  25.5 °C 74.5 °F /  23.6 °C 29.93in /  1013.4hPa Calm     89% 0in /  0mm
19:29 77.7 °F /  25.4 °C 74.5 °F /  23.6 °C 29.93in /  1013.4hPa Calm     90% 0in /  0mm
19:34 77.4 °F /  25.2 °C 74.1 °F /  23.4 °C 29.93in /  1013.4hPa Calm     90% 0in /  0mm
19:39 77.2 °F /  25.1 °C 73.9 °F /  23.3 °C 29.93in /  1013.4hPa Calm     90% 0in /  0mm
19:44 76.8 °F /  24.9 °C 73.6 °F /  23.1 °C 29.93in /  1013.4hPa Calm     90% 0in /  0mm
19:49 76.6 °F /  24.8 °C 73.4 °F /  23 °C 29.93in /  1013.4hPa Calm     90% 0in /  0mm
19:54 76.6 °F /  24.8 °C 73.4 °F /  23 °C 29.93in /  1013.4hPa Calm     90% 0in /  0mm
19:59 76.3 °F /  24.6 °C 73.4 °F /  23 °C 29.93in /  1013.4hPa Calm     91% 0in /  0mm
20:04 76.1 °F /  24.5 °C 73.2 °F /  22.9 °C 29.93in /  1013.4hPa Calm     91% 0in /  0mm
20:09 75.9 °F /  24.4 °C 73 °F /  22.8 °C 29.93in /  1013.4hPa Calm     91% 0in /  0mm
20:14 75.9 °F /  24.4 °C 73 °F /  22.8 °C 29.92in /  1013.1hPa Calm     91% 0in /  0mm
20:19 75.7 °F /  24.3 °C 73.2 °F /  22.9 °C 29.92in /  1013.1hPa Calm     92% 0in /  0mm
20:24 75.7 °F /  24.3 °C 73.2 °F /  22.9 °C 29.92in /  1013.1hPa Calm     92% 0in /  0mm
20:29 75.6 °F /  24.2 °C 73 °F /  22.8 °C 29.93in /  1013.4hPa Calm     92% 0in /  0mm
20:34 75.6 °F /  24.2 °C 73 °F /  22.8 °C 29.93in /  1013.4hPa Calm     92% 0in /  0mm
20:39 75.4 °F /  24.1 °C 72.9 °F /  22.7 °C 29.93in /  1013.4hPa Calm     92% 0in /  0mm
20:44 75.4 °F /  24.1 °C 73.2 °F /  22.9 °C 29.94in /  1013.8hPa NW 4mph /  6.4km/h 4mph /  6.4km/h 93% 0in /  0mm
20:49 74.7 °F /  23.7 °C 71.8 °F /  22.1 °C 29.95in /  1014.1hPa Calm   3mph /  4.8km/h 91% 0in /  0mm
20:54 73.9 °F /  23.3 °C 70.9 °F /  21.6 °C 29.94in /  1013.8hPa Calm   5mph /  8km/h 90% 0in /  0mm
20:59 73.8 °F /  23.2 °C 70.7 °F /  21.5 °C 29.94in /  1013.8hPa Calm   3mph /  4.8km/h 90% 0in /  0mm
21:04 73.6 °F /  23.1 °C 70.7 °F /  21.5 °C 29.95in /  1014.1hPa Calm     91% 0in /  0mm
21:09 73.2 °F /  22.9 °C 70.5 °F /  21.4 °C 29.95in /  1014.1hPa Calm     91% 0in /  0mm
21:14 73 °F /  22.8 °C 70.3 °F /  21.3 °C 29.95in /  1014.1hPa Calm     91% 0in /  0mm
21:19 72.9 °F /  22.7 °C 70.3 °F /  21.3 °C 29.96in /  1014.4hPa Calm     92% 0in /  0mm
21:24 72.9 °F /  22.7 °C 70.3 °F /  21.3 °C 29.96in /  1014.4hPa Calm     92% 0in /  0mm
21:29 72.7 °F /  22.6 °C 70.2 °F /  21.2 °C 29.96in /  1014.4hPa Calm     92% 0in /  0mm
21:34 72.7 °F /  22.6 °C 70.5 °F /  21.4 °C 29.96in /  1014.4hPa Calm     93% 0in /  0mm
21:39 72.5 °F /  22.5 °C 70.3 °F /  21.3 °C 29.96in /  1014.4hPa Calm     93% 0in /  0mm
21:44 72.3 °F /  22.4 °C 70.2 °F /  21.2 °C 29.96in /  1014.4hPa Calm     93% 0in /  0mm
21:49 72.3 °F /  22.4 °C 70.2 °F /  21.2 °C 29.97in /  1014.8hPa Calm     93% 0in /  0mm
21:54 72.1 °F /  22.3 °C 70 °F /  21.1 °C 29.97in /  1014.8hPa Calm     93% 0in /  0mm
21:59 72.1 °F /  22.3 °C 70 °F /  21.1 °C 29.97in /  1014.8hPa Calm     93% 0in /  0mm
22:04 72.1 °F /  22.3 °C 70 °F /  21.1 °C 29.97in /  1014.8hPa Calm     93% 0in /  0mm
22:09 72.1 °F /  22.3 °C 70.3 °F /  21.3 °C 29.97in /  1014.8hPa Calm     94% 0in /  0mm
22:14 72 °F /  22.2 °C 69.8 °F /  21 °C 29.97in /  1014.8hPa Calm     93% 0in /  0mm
22:19 72 °F /  22.2 °C 69.8 °F /  21 °C 29.98in /  1015.1hPa Calm     93% 0in /  0mm
22:24 72 °F /  22.2 °C 70.2 °F /  21.2 °C 29.98in /  1015.1hPa Calm     94% 0in /  0mm
22:29 72 °F /  22.2 °C 70.2 °F /  21.2 °C 29.98in /  1015.1hPa Calm     94% 0in /  0mm
22:34 72 °F /  22.2 °C 70.2 °F /  21.2 °C 29.98in /  1015.1hPa Calm     94% 0in /  0mm
22:39 71.8 °F /  22.1 °C 70 °F /  21.1 °C 29.98in /  1015.1hPa Calm     94% 0in /  0mm
22:44 71.8 °F /  22.1 °C 70 °F /  21.1 °C 29.98in /  1015.1hPa Calm     94% 0in /  0mm
22:49 71.4 °F /  21.9 °C 69.6 °F /  20.9 °C 29.98in /  1015.1hPa Calm     94% 0in /  0mm
22:54 71.4 °F /  21.9 °C 69.6 °F /  20.9 °C 29.98in /  1015.1hPa Calm     94% 0in /  0mm
22:59 71.2 °F /  21.8 °C 69.4 °F /  20.8 °C 29.98in /  1015.1hPa Calm     94% 0in /  0mm
23:04 71.2 °F /  21.8 °C 69.4 °F /  20.8 °C 29.98in /  1015.1hPa Calm     94% 0in /  0mm
23:09 71.1 °F /  21.7 °C 69.3 °F /  20.7 °C 29.98in /  1015.1hPa Calm     94% 0in /  0mm
23:14 70.9 °F /  21.6 °C 69.1 °F /  20.6 °C 29.98in /  1015.1hPa Calm     94% 0in /  0mm
23:19 70.9 °F /  21.6 °C 69.1 °F /  20.6 °C 29.98in /  1015.1hPa Calm     94% 0in /  0mm
23:24 70.7 °F /  21.5 °C 68.9 °F /  20.5 °C 29.98in /  1015.1hPa Calm     94% 0in /  0mm
23:29 70.7 °F /  21.5 °C 68.9 °F /  20.5 °C 29.98in /  1015.1hPa Calm     94% 0in /  0mm
23:34 70.7 °F /  21.5 °C 68.9 °F /  20.5 °C 29.98in /  1015.1hPa Calm     94% 0in /  0mm
23:39 70.5 °F /  21.4 °C 68.7 °F /  20.4 °C 29.98in /  1015.1hPa Calm     94% 0in /  0mm
23:44 70.5 °F /  21.4 °C 68.7 °F /  20.4 °C 29.98in /  1015.1hPa Calm     94% 0in /  0mm
23:49 70.5 °F /  21.4 °C 69.1 °F /  20.6 °C 29.98in /  1015.1hPa Calm     95% 0in /  0mm
23:54 70.5 °F /  21.4 °C 69.1 °F /  20.6 °C 29.98in /  1015.1hPa Calm   1mph /  1.6km/h 95% 0in /  0mm
23:59 70.5 °F /  21.4 °C 69.1 °F /  20.6 °C 29.98in /  1015.1hPa Calm     95% 0.01in /  0.25mm
Ellijay Weather
Compliments of Weather Underground - 2.5 mb